sensor_id;sensor_type;location;lat;lon;timestamp;P1;durP1;ratioP1;P2;durP2;ratioP2
64712;SDS011;51140;45.340;5.980;2023-08-17T00:01:49;6.80;;;2.78;;
64712;SDS011;51140;45.340;5.980;2023-08-17T00:04:14;6.88;;;2.60;;
64712;SDS011;51140;45.340;5.980;2023-08-17T00:06:40;9.13;;;3.22;;
64712;SDS011;51140;45.340;5.980;2023-08-17T00:09:05;8.65;;;2.97;;
64712;SDS011;51140;45.340;5.980;2023-08-17T00:11:31;6.75;;;2.90;;
64712;SDS011;51140;45.340;5.980;2023-08-17T00:13:57;7.05;;;3.17;;
64712;SDS011;51140;45.340;5.980;2023-08-17T00:16:23;7.57;;;3.17;;
64712;SDS011;51140;45.340;5.980;2023-08-17T00:18:48;7.60;;;3.35;;
64712;SDS011;51140;45.340;5.980;2023-08-17T00:21:14;6.72;;;2.63;;
64712;SDS011;51140;45.340;5.980;2023-08-17T00:23:39;9.45;;;3.33;;
64712;SDS011;51140;45.340;5.980;2023-08-17T00:26:04;7.65;;;3.10;;
64712;SDS011;51140;45.340;5.980;2023-08-17T00:28:30;5.80;;;3.10;;
64712;SDS011;51140;45.340;5.980;2023-08-17T00:30:55;9.95;;;3.05;;
64712;SDS011;51140;45.340;5.980;2023-08-17T00:33:21;7.30;;;2.90;;
64712;SDS011;51140;45.340;5.980;2023-08-17T00:35:46;6.40;;;3.40;;
64712;SDS011;51140;45.340;5.980;2023-08-17T00:38:12;7.40;;;2.88;;
64712;SDS011;51140;45.340;5.980;2023-08-17T00:40:37;6.55;;;3.13;;
64712;SDS011;51140;45.340;5.980;2023-08-17T00:43:03;9.30;;;3.17;;
64712;SDS011;51140;45.340;5.980;2023-08-17T00:45:30;5.72;;;2.80;;
64712;SDS011;51140;45.340;5.980;2023-08-17T00:47:56;6.00;;;2.92;;
64712;SDS011;51140;45.340;5.980;2023-08-17T00:50:23;7.00;;;2.90;;
64712;SDS011;51140;45.340;5.980;2023-08-17T00:52:50;5.53;;;2.80;;
64712;SDS011;51140;45.340;5.980;2023-08-17T00:55:17;7.15;;;3.00;;
64712;SDS011;51140;45.340;5.980;2023-08-17T00:57:42;7.47;;;2.80;;
64712;SDS011;51140;45.340;5.980;2023-08-17T01:00:09;6.50;;;2.70;;
64712;SDS011;51140;45.340;5.980;2023-08-17T01:02:36;6.05;;;2.85;;
64712;SDS011;51140;45.340;5.980;2023-08-17T01:05:03;7.85;;;3.03;;
64712;SDS011;51140;45.340;5.980;2023-08-17T01:07:31;8.95;;;3.17;;
64712;SDS011;51140;45.340;5.980;2023-08-17T01:09:56;5.20;;;3.08;;
64712;SDS011;51140;45.340;5.980;2023-08-17T01:15:21;6.40;;;2.80;;
64712;SDS011;51140;45.340;5.980;2023-08-17T01:18:00;6.38;;;3.15;;
64712;SDS011;51140;45.340;5.980;2023-08-17T01:21:07;7.47;;;3.05;;
64712;SDS011;51140;45.340;5.980;2023-08-17T01:23:35;6.90;;;2.83;;
64712;SDS011;51140;45.340;5.980;2023-08-17T01:26:00;7.63;;;3.25;;
64712;SDS011;51140;45.340;5.980;2023-08-17T01:28:26;5.57;;;3.00;;
64712;SDS011;51140;45.340;5.980;2023-08-17T01:31:00;6.60;;;3.00;;
64712;SDS011;51140;45.340;5.980;2023-08-17T01:33:36;7.15;;;2.75;;
64712;SDS011;51140;45.340;5.980;2023-08-17T01:39:06;6.40;;;3.03;;
64712;SDS011;51140;45.340;5.980;2023-08-17T01:41:33;6.28;;;2.72;;
64712;SDS011;51140;45.340;5.980;2023-08-17T01:43:59;6.45;;;2.88;;
64712;SDS011;51140;45.340;5.980;2023-08-17T01:46:29;9.48;;;3.05;;
64712;SDS011;51140;45.340;5.980;2023-08-17T01:48:57;7.15;;;2.85;;
64712;SDS011;51140;45.340;5.980;2023-08-17T01:51:22;7.40;;;2.97;;
64712;SDS011;51140;45.340;5.980;2023-08-17T01:53:48;6.22;;;2.95;;
64712;SDS011;51140;45.340;5.980;2023-08-17T01:56:14;6.05;;;3.15;;
64712;SDS011;51140;45.340;5.980;2023-08-17T01:58:39;6.70;;;3.10;;
64712;SDS011;51140;45.340;5.980;2023-08-17T02:01:05;7.78;;;2.90;;
64712;SDS011;51140;45.340;5.980;2023-08-17T02:03:30;6.50;;;3.25;;
64712;SDS011;51140;45.340;5.980;2023-08-17T02:05:56;7.35;;;2.78;;
64712;SDS011;51140;45.340;5.980;2023-08-17T02:08:22;7.30;;;3.40;;
64712;SDS011;51140;45.340;5.980;2023-08-17T02:10:48;6.43;;;2.83;;
64712;SDS011;51140;45.340;5.980;2023-08-17T02:13:14;6.00;;;3.08;;
64712;SDS011;51140;45.340;5.980;2023-08-17T02:15:39;5.43;;;2.80;;
64712;SDS011;51140;45.340;5.980;2023-08-17T02:18:05;6.10;;;3.10;;
64712;SDS011;51140;45.340;5.980;2023-08-17T02:20:30;6.25;;;3.08;;
64712;SDS011;51140;45.340;5.980;2023-08-17T02:22:57;6.32;;;2.55;;
64712;SDS011;51140;45.340;5.980;2023-08-17T02:25:22;6.68;;;3.00;;
64712;SDS011;51140;45.340;5.980;2023-08-17T02:27:48;7.40;;;3.10;;
64712;SDS011;51140;45.340;5.980;2023-08-17T02:30:13;8.02;;;3.35;;
64712;SDS011;51140;45.340;5.980;2023-08-17T02:32:39;6.13;;;2.95;;
64712;SDS011;51140;45.340;5.980;2023-08-17T02:35:04;8.75;;;3.38;;
64712;SDS011;51140;45.340;5.980;2023-08-17T02:37:31;7.20;;;2.90;;
64712;SDS011;51140;45.340;5.980;2023-08-17T02:39:56;6.40;;;3.20;;
64712;SDS011;51140;45.340;5.980;2023-08-17T02:42:22;6.00;;;2.90;;
64712;SDS011;51140;45.340;5.980;2023-08-17T02:44:47;6.10;;;3.00;;
64712;SDS011;51140;45.340;5.980;2023-08-17T02:47:13;7.07;;;3.33;;
64712;SDS011;51140;45.340;5.980;2023-08-17T02:49:38;7.45;;;3.03;;
64712;SDS011;51140;45.340;5.980;2023-08-17T02:52:04;5.85;;;3.13;;
64712;SDS011;51140;45.340;5.980;2023-08-17T02:54:29;6.78;;;3.45;;
64712;SDS011;51140;45.340;5.980;2023-08-17T02:56:56;6.18;;;2.83;;
64712;SDS011;51140;45.340;5.980;2023-08-17T02:59:22;7.65;;;3.20;;
64712;SDS011;51140;45.340;5.980;2023-08-17T03:01:47;6.75;;;3.30;;
64712;SDS011;51140;45.340;5.980;2023-08-17T03:04:12;5.97;;;2.78;;
64712;SDS011;51140;45.340;5.980;2023-08-17T03:06:38;6.32;;;2.90;;
64712;SDS011;51140;45.340;5.980;2023-08-17T03:09:04;6.35;;;3.28;;
64712;SDS011;51140;45.340;5.980;2023-08-17T03:11:29;7.30;;;3.20;;
64712;SDS011;51140;45.340;5.980;2023-08-17T03:13:54;7.20;;;3.00;;
64712;SDS011;51140;45.340;5.980;2023-08-17T03:16:25;7.70;;;3.47;;
64712;SDS011;51140;45.340;5.980;2023-08-17T03:18:51;5.40;;;2.90;;
64712;SDS011;51140;45.340;5.980;2023-08-17T03:21:17;6.72;;;3.38;;
64712;SDS011;51140;45.340;5.980;2023-08-17T03:23:43;6.75;;;3.05;;
64712;SDS011;51140;45.340;5.980;2023-08-17T03:26:09;6.20;;;2.80;;
64712;SDS011;51140;45.340;5.980;2023-08-17T03:28:34;7.75;;;3.03;;
64712;SDS011;51140;45.340;5.980;2023-08-17T03:31:00;8.80;;;3.20;;
64712;SDS011;51140;45.340;5.980;2023-08-17T03:33:26;6.97;;;2.95;;
64712;SDS011;51140;45.340;5.980;2023-08-17T03:35:52;6.97;;;2.80;;
64712;SDS011;51140;45.340;5.980;2023-08-17T03:38:17;9.35;;;3.40;;
64712;SDS011;51140;45.340;5.980;2023-08-17T03:40:43;8.60;;;3.75;;
64712;SDS011;51140;45.340;5.980;2023-08-17T03:43:08;6.90;;;3.15;;
64712;SDS011;51140;45.340;5.980;2023-08-17T03:45:33;10.30;;;3.78;;
64712;SDS011;51140;45.340;5.980;2023-08-17T03:47:59;5.82;;;3.00;;
64712;SDS011;51140;45.340;5.980;2023-08-17T03:50:25;8.35;;;3.60;;
64712;SDS011;51140;45.340;5.980;2023-08-17T03:52:53;6.57;;;3.20;;
64712;SDS011;51140;45.340;5.980;2023-08-17T03:55:18;7.70;;;3.80;;
64712;SDS011;51140;45.340;5.980;2023-08-17T03:57:43;7.05;;;3.30;;
64712;SDS011;51140;45.340;5.980;2023-08-17T04:00:09;6.80;;;3.58;;
64712;SDS011;51140;45.340;5.980;2023-08-17T04:02:35;8.40;;;3.60;;
64712;SDS011;51140;45.340;5.980;2023-08-17T04:05:00;5.57;;;3.42;;
64712;SDS011;51140;45.340;5.980;2023-08-17T04:07:26;10.02;;;3.40;;
64712;SDS011;51140;45.340;5.980;2023-08-17T04:09:51;7.18;;;3.15;;
64712;SDS011;51140;45.340;5.980;2023-08-17T04:12:17;12.75;;;4.18;;
64712;SDS011;51140;45.340;5.980;2023-08-17T04:14:43;10.30;;;3.33;;
64712;SDS011;51140;45.340;5.980;2023-08-17T04:17:09;7.63;;;3.60;;
64712;SDS011;51140;45.340;5.980;2023-08-17T04:19:34;6.90;;;3.47;;
64712;SDS011;51140;45.340;5.980;2023-08-17T04:22:00;9.10;;;2.97;;
64712;SDS011;51140;45.340;5.980;2023-08-17T04:24:25;8.02;;;3.88;;
64712;SDS011;51140;45.340;5.980;2023-08-17T04:26:51;7.68;;;3.13;;
64712;SDS011;51140;45.340;5.980;2023-08-17T04:29:16;7.57;;;3.65;;
64712;SDS011;51140;45.340;5.980;2023-08-17T04:31:41;9.13;;;4.25;;
64712;SDS011;51140;45.340;5.980;2023-08-17T04:34:07;7.35;;;4.10;;
64712;SDS011;51140;45.340;5.980;2023-08-17T04:36:32;10.45;;;4.65;;
64712;SDS011;51140;45.340;5.980;2023-08-17T04:38:58;8.80;;;4.40;;
64712;SDS011;51140;45.340;5.980;2023-08-17T04:41:23;9.65;;;4.30;;
64712;SDS011;51140;45.340;5.980;2023-08-17T04:43:49;7.70;;;3.70;;
64712;SDS011;51140;45.340;5.980;2023-08-17T04:46:15;8.88;;;3.85;;
64712;SDS011;51140;45.340;5.980;2023-08-17T04:48:40;11.05;;;4.45;;
64712;SDS011;51140;45.340;5.980;2023-08-17T04:51:05;8.35;;;4.10;;
64712;SDS011;51140;45.340;5.980;2023-08-17T04:53:31;7.28;;;3.42;;
64712;SDS011;51140;45.340;5.980;2023-08-17T04:55:56;6.97;;;3.65;;
64712;SDS011;51140;45.340;5.980;2023-08-17T04:58:23;9.57;;;4.20;;
64712;SDS011;51140;45.340;5.980;2023-08-17T05:00:48;8.57;;;3.63;;
64712;SDS011;51140;45.340;5.980;2023-08-17T05:03:14;6.90;;;3.60;;
64712;SDS011;51140;45.340;5.980;2023-08-17T05:05:39;8.10;;;3.60;;
64712;SDS011;51140;45.340;5.980;2023-08-17T05:08:04;6.90;;;3.08;;
64712;SDS011;51140;45.340;5.980;2023-08-17T05:10:30;8.85;;;3.03;;
64712;SDS011;51140;45.340;5.980;2023-08-17T05:12:55;7.43;;;3.28;;
64712;SDS011;51140;45.340;5.980;2023-08-17T05:15:21;6.95;;;3.80;;
64712;SDS011;51140;45.340;5.980;2023-08-17T05:17:46;6.72;;;3.38;;
64712;SDS011;51140;45.340;5.980;2023-08-17T05:20:12;6.75;;;3.47;;
64712;SDS011;51140;45.340;5.980;2023-08-17T05:22:40;14.13;;;3.90;;
64712;SDS011;51140;45.340;5.980;2023-08-17T05:25:06;8.52;;;3.67;;
64712;SDS011;51140;45.340;5.980;2023-08-17T05:27:32;7.82;;;4.00;;
64712;SDS011;51140;45.340;5.980;2023-08-17T05:29:57;10.38;;;3.58;;
64712;SDS011;51140;45.340;5.980;2023-08-17T05:32:22;6.85;;;3.30;;
64712;SDS011;51140;45.340;5.980;2023-08-17T05:34:48;10.05;;;3.75;;
64712;SDS011;51140;45.340;5.980;2023-08-17T05:37:13;9.32;;;3.65;;
64712;SDS011;51140;45.340;5.980;2023-08-17T05:39:40;10.35;;;3.80;;
64712;SDS011;51140;45.340;5.980;2023-08-17T05:42:06;8.68;;;3.50;;
64712;SDS011;51140;45.340;5.980;2023-08-17T05:44:32;7.85;;;3.75;;
64712;SDS011;51140;45.340;5.980;2023-08-17T05:46:57;8.57;;;3.83;;
64712;SDS011;51140;45.340;5.980;2023-08-17T05:49:22;7.63;;;3.30;;
64712;SDS011;51140;45.340;5.980;2023-08-17T05:51:48;7.60;;;3.45;;
64712;SDS011;51140;45.340;5.980;2023-08-17T05:54:13;7.63;;;3.40;;
64712;SDS011;51140;45.340;5.980;2023-08-17T05:56:39;6.82;;;3.10;;
64712;SDS011;51140;45.340;5.980;2023-08-17T05:59:09;6.80;;;3.75;;
64712;SDS011;51140;45.340;5.980;2023-08-17T06:01:35;5.28;;;3.33;;
64712;SDS011;51140;45.340;5.980;2023-08-17T06:04:01;12.98;;;4.50;;
64712;SDS011;51140;45.340;5.980;2023-08-17T06:06:26;11.88;;;4.47;;
64712;SDS011;51140;45.340;5.980;2023-08-17T06:08:52;9.73;;;4.28;;
64712;SDS011;51140;45.340;5.980;2023-08-17T06:11:17;10.60;;;4.50;;
64712;SDS011;51140;45.340;5.980;2023-08-17T06:13:42;8.93;;;4.53;;
64712;SDS011;51140;45.340;5.980;2023-08-17T06:16:08;9.63;;;4.60;;
64712;SDS011;51140;45.340;5.980;2023-08-17T06:18:33;9.00;;;4.68;;
64712;SDS011;51140;45.340;5.980;2023-08-17T06:20:59;9.60;;;4.97;;
64712;SDS011;51140;45.340;5.980;2023-08-17T06:23:24;12.63;;;5.13;;
64712;SDS011;51140;45.340;5.980;2023-08-17T06:25:50;8.48;;;4.38;;
64712;SDS011;51140;45.340;5.980;2023-08-17T06:28:15;10.40;;;4.70;;
64712;SDS011;51140;45.340;5.980;2023-08-17T06:30:41;12.30;;;4.63;;
64712;SDS011;51140;45.340;5.980;2023-08-17T06:33:06;8.70;;;4.75;;
64712;SDS011;51140;45.340;5.980;2023-08-17T06:35:32;8.98;;;4.63;;
64712;SDS011;51140;45.340;5.980;2023-08-17T06:37:57;10.02;;;4.53;;
64712;SDS011;51140;45.340;5.980;2023-08-17T06:40:23;9.05;;;4.20;;
64712;SDS011;51140;45.340;5.980;2023-08-17T06:42:49;6.85;;;4.10;;
64712;SDS011;51140;45.340;5.980;2023-08-17T06:45:15;7.07;;;3.40;;
64712;SDS011;51140;45.340;5.980;2023-08-17T06:47:43;10.25;;;3.60;;
64712;SDS011;51140;45.340;5.980;2023-08-17T06:50:10;7.97;;;4.20;;
64712;SDS011;51140;45.340;5.980;2023-08-17T06:52:35;9.55;;;3.90;;
64712;SDS011;51140;45.340;5.980;2023-08-17T06:55:01;8.95;;;3.85;;
64712;SDS011;51140;45.340;5.980;2023-08-17T06:57:27;8.50;;;4.13;;
64712;SDS011;51140;45.340;5.980;2023-08-17T06:59:53;9.13;;;4.40;;
64712;SDS011;51140;45.340;5.980;2023-08-17T07:02:19;12.30;;;4.95;;
64712;SDS011;51140;45.340;5.980;2023-08-17T07:04:45;11.20;;;4.38;;
64712;SDS011;51140;45.340;5.980;2023-08-17T07:07:12;7.38;;;4.20;;
64712;SDS011;51140;45.340;5.980;2023-08-17T07:09:39;8.50;;;4.55;;
64712;SDS011;51140;45.340;5.980;2023-08-17T07:12:04;9.13;;;4.50;;
64712;SDS011;51140;45.340;5.980;2023-08-17T07:14:30;8.77;;;4.68;;
64712;SDS011;51140;45.340;5.980;2023-08-17T07:16:55;12.05;;;4.45;;
64712;SDS011;51140;45.340;5.980;2023-08-17T07:19:21;6.88;;;4.10;;
64712;SDS011;51140;45.340;5.980;2023-08-17T07:21:47;8.15;;;4.68;;
64712;SDS011;51140;45.340;5.980;2023-08-17T07:24:13;9.80;;;4.65;;
64712;SDS011;51140;45.340;5.980;2023-08-17T07:26:40;10.15;;;4.47;;
64712;SDS011;51140;45.340;5.980;2023-08-17T07:29:05;8.52;;;4.55;;
64712;SDS011;51140;45.340;5.980;2023-08-17T07:31:31;10.20;;;4.75;;
64712;SDS011;51140;45.340;5.980;2023-08-17T07:33:58;7.75;;;4.05;;
64712;SDS011;51140;45.340;5.980;2023-08-17T07:36:24;7.95;;;4.30;;
64712;SDS011;51140;45.340;5.980;2023-08-17T07:38:50;12.85;;;4.25;;
64712;SDS011;51140;45.340;5.980;2023-08-17T07:41:15;9.18;;;4.38;;
64712;SDS011;51140;45.340;5.980;2023-08-17T07:43:40;9.40;;;4.75;;
64712;SDS011;51140;45.340;5.980;2023-08-17T07:46:06;10.48;;;4.50;;
64712;SDS011;51140;45.340;5.980;2023-08-17T07:48:31;7.53;;;4.28;;
64712;SDS011;51140;45.340;5.980;2023-08-17T07:50:58;10.88;;;4.40;;
64712;SDS011;51140;45.340;5.980;2023-08-17T07:53:24;8.63;;;4.32;;
64712;SDS011;51140;45.340;5.980;2023-08-17T07:55:50;9.05;;;4.20;;
64712;SDS011;51140;45.340;5.980;2023-08-17T07:58:15;10.60;;;4.00;;
64712;SDS011;51140;45.340;5.980;2023-08-17T08:00:40;7.88;;;4.03;;
64712;SDS011;51140;45.340;5.980;2023-08-17T08:03:06;10.32;;;4.00;;
64712;SDS011;51140;45.340;5.980;2023-08-17T08:05:31;10.30;;;4.13;;
64712;SDS011;51140;45.340;5.980;2023-08-17T08:07:57;6.50;;;3.80;;
64712;SDS011;51140;45.340;5.980;2023-08-17T08:10:22;8.85;;;4.85;;
64712;SDS011;51140;45.340;5.980;2023-08-17T08:12:47;12.02;;;4.13;;
64712;SDS011;51140;45.340;5.980;2023-08-17T08:15:13;10.40;;;4.70;;
64712;SDS011;51140;45.340;5.980;2023-08-17T08:17:38;8.88;;;4.45;;
64712;SDS011;51140;45.340;5.980;2023-08-17T08:20:04;10.48;;;4.40;;
64712;SDS011;51140;45.340;5.980;2023-08-17T08:22:30;10.10;;;4.30;;
64712;SDS011;51140;45.340;5.980;2023-08-17T08:24:55;8.55;;;4.47;;
64712;SDS011;51140;45.340;5.980;2023-08-17T08:27:21;8.80;;;4.20;;
64712;SDS011;51140;45.340;5.980;2023-08-17T08:29:46;9.13;;;4.53;;
64712;SDS011;51140;45.340;5.980;2023-08-17T08:32:12;10.25;;;4.38;;
64712;SDS011;51140;45.340;5.980;2023-08-17T08:34:37;9.70;;;4.25;;
64712;SDS011;51140;45.340;5.980;2023-08-17T08:37:03;11.63;;;3.88;;
64712;SDS011;51140;45.340;5.980;2023-08-17T08:39:28;8.35;;;4.53;;
64712;SDS011;51140;45.340;5.980;2023-08-17T08:41:54;9.25;;;4.40;;
64712;SDS011;51140;45.340;5.980;2023-08-17T08:44:19;11.15;;;4.72;;
64712;SDS011;51140;45.340;5.980;2023-08-17T08:46:45;11.35;;;4.38;;
64712;SDS011;51140;45.340;5.980;2023-08-17T08:49:11;9.02;;;4.57;;
64712;SDS011;51140;45.340;5.980;2023-08-17T08:51:41;9.70;;;4.45;;
64712;SDS011;51140;45.340;5.980;2023-08-17T08:54:14;8.50;;;4.50;;
64712;SDS011;51140;45.340;5.980;2023-08-17T08:56:45;8.10;;;4.20;;
64712;SDS011;51140;45.340;5.980;2023-08-17T08:59:13;9.43;;;4.00;;
64712;SDS011;51140;45.340;5.980;2023-08-17T09:01:39;10.05;;;4.80;;
64712;SDS011;51140;45.340;5.980;2023-08-17T09:04:05;9.95;;;3.88;;
64712;SDS011;51140;45.340;5.980;2023-08-17T09:06:30;9.20;;;4.00;;
64712;SDS011;51140;45.340;5.980;2023-08-17T09:08:57;8.27;;;3.90;;
64712;SDS011;51140;45.340;5.980;2023-08-17T09:11:23;9.77;;;4.07;;
64712;SDS011;51140;45.340;5.980;2023-08-17T09:13:48;8.18;;;4.32;;
64712;SDS011;51140;45.340;5.980;2023-08-17T09:16:14;7.72;;;4.10;;
64712;SDS011;51140;45.340;5.980;2023-08-17T09:18:40;7.15;;;4.35;;
64712;SDS011;51140;45.340;5.980;2023-08-17T09:21:05;12.68;;;4.90;;
64712;SDS011;51140;45.340;5.980;2023-08-17T09:23:31;9.95;;;4.15;;
64712;SDS011;51140;45.340;5.980;2023-08-17T09:25:56;13.65;;;4.55;;
64712;SDS011;51140;45.340;5.980;2023-08-17T09:28:25;8.32;;;4.25;;
64712;SDS011;51140;45.340;5.980;2023-08-17T09:31:00;12.05;;;4.28;;
64712;SDS011;51140;45.340;5.980;2023-08-17T09:33:29;9.38;;;4.47;;
64712;SDS011;51140;45.340;5.980;2023-08-17T09:35:56;9.85;;;4.47;;
64712;SDS011;51140;45.340;5.980;2023-08-17T09:38:23;10.30;;;4.47;;
64712;SDS011;51140;45.340;5.980;2023-08-17T09:40:49;8.88;;;4.20;;
64712;SDS011;51140;45.340;5.980;2023-08-17T09:43:15;6.93;;;4.15;;
64712;SDS011;51140;45.340;5.980;2023-08-17T09:45:42;9.50;;;4.63;;
64712;SDS011;51140;45.340;5.980;2023-08-17T09:48:10;8.02;;;3.83;;
64712;SDS011;51140;45.340;5.980;2023-08-17T09:50:36;12.65;;;4.72;;
64712;SDS011;51140;45.340;5.980;2023-08-17T09:53:04;12.48;;;4.50;;
64712;SDS011;51140;45.340;5.980;2023-08-17T09:55:30;8.25;;;4.20;;
64712;SDS011;51140;45.340;5.980;2023-08-17T09:57:58;12.55;;;5.15;;
64712;SDS011;51140;45.340;5.980;2023-08-17T10:00:23;12.45;;;4.38;;
64712;SDS011;51140;45.340;5.980;2023-08-17T10:02:50;9.52;;;3.80;;
64712;SDS011;51140;45.340;5.980;2023-08-17T10:05:17;10.18;;;4.03;;
64712;SDS011;51140;45.340;5.980;2023-08-17T10:07:45;11.10;;;4.38;;
64712;SDS011;51140;45.340;5.980;2023-08-17T10:10:16;9.75;;;3.90;;
64712;SDS011;51140;45.340;5.980;2023-08-17T10:13:08;9.98;;;3.78;;
64712;SDS011;51140;45.340;5.980;2023-08-17T10:15:38;10.52;;;4.22;;
64712;SDS011;51140;45.340;5.980;2023-08-17T10:20:54;7.70;;;4.10;;
64712;SDS011;51140;45.340;5.980;2023-08-17T10:23:26;9.90;;;3.42;;
64712;SDS011;51140;45.340;5.980;2023-08-17T10:25:52;9.45;;;3.53;;
64712;SDS011;51140;45.340;5.980;2023-08-17T10:28:19;7.55;;;3.65;;
64712;SDS011;51140;45.340;5.980;2023-08-17T10:30:46;8.95;;;3.72;;
64712;SDS011;51140;45.340;5.980;2023-08-17T10:33:13;6.20;;;3.10;;
64712;SDS011;51140;45.340;5.980;2023-08-17T10:35:40;9.63;;;3.72;;
64712;SDS011;51140;45.340;5.980;2023-08-17T10:38:07;9.55;;;3.67;;
64712;SDS011;51140;45.340;5.980;2023-08-17T10:40:37;9.55;;;4.07;;
64712;SDS011;51140;45.340;5.980;2023-08-17T10:43:05;7.50;;;3.53;;
64712;SDS011;51140;45.340;5.980;2023-08-17T10:45:31;7.72;;;3.65;;
64712;SDS011;51140;45.340;5.980;2023-08-17T10:50:30;7.65;;;3.50;;
64712;SDS011;51140;45.340;5.980;2023-08-17T10:52:57;10.00;;;3.30;;
64712;SDS011;51140;45.340;5.980;2023-08-17T10:55:35;10.20;;;3.10;;
64712;SDS011;51140;45.340;5.980;2023-08-17T10:58:02;10.60;;;3.80;;
64712;SDS011;51140;45.340;5.980;2023-08-17T11:00:31;11.27;;;3.03;;
64712;SDS011;51140;45.340;5.980;2023-08-17T11:03:03;7.43;;;3.33;;
64712;SDS011;51140;45.340;5.980;2023-08-17T11:05:40;12.25;;;3.45;;
64712;SDS011;51140;45.340;5.980;2023-08-17T11:08:06;9.23;;;3.50;;
64712;SDS011;51140;45.340;5.980;2023-08-17T11:10:32;8.27;;;3.30;;
64712;SDS011;51140;45.340;5.980;2023-08-17T11:12:58;8.75;;;3.20;;
64712;SDS011;51140;45.340;5.980;2023-08-17T11:18:04;9.98;;;3.50;;
64712;SDS011;51140;45.340;5.980;2023-08-17T11:20:31;14.60;;;4.03;;
64712;SDS011;51140;45.340;5.980;2023-08-17T11:22:57;9.13;;;3.15;;
64712;SDS011;51140;45.340;5.980;2023-08-17T11:25:24;10.27;;;3.00;;
64712;SDS011;51140;45.340;5.980;2023-08-17T11:27:50;9.20;;;3.10;;
64712;SDS011;51140;45.340;5.980;2023-08-17T11:30:16;8.57;;;2.88;;
64712;SDS011;51140;45.340;5.980;2023-08-17T11:32:42;9.07;;;2.75;;
64712;SDS011;51140;45.340;5.980;2023-08-17T11:35:07;9.82;;;3.03;;
64712;SDS011;51140;45.340;5.980;2023-08-17T11:37:33;9.15;;;2.85;;
64712;SDS011;51140;45.340;5.980;2023-08-17T11:39:58;10.70;;;2.63;;
64712;SDS011;51140;45.340;5.980;2023-08-17T11:42:23;10.07;;;2.90;;
64712;SDS011;51140;45.340;5.980;2023-08-17T11:44:50;9.27;;;3.15;;
64712;SDS011;51140;45.340;5.980;2023-08-17T11:47:16;10.05;;;2.95;;
64712;SDS011;51140;45.340;5.980;2023-08-17T11:49:41;8.55;;;3.03;;
64712;SDS011;51140;45.340;5.980;2023-08-17T11:52:09;11.05;;;3.03;;
64712;SDS011;51140;45.340;5.980;2023-08-17T11:54:39;8.90;;;2.97;;
64712;SDS011;51140;45.340;5.980;2023-08-17T11:57:05;9.57;;;2.80;;
64712;SDS011;51140;45.340;5.980;2023-08-17T11:59:30;9.05;;;2.53;;
64712;SDS011;51140;45.340;5.980;2023-08-17T12:01:57;10.13;;;2.88;;
64712;SDS011;51140;45.340;5.980;2023-08-17T12:04:23;9.63;;;2.70;;
64712;SDS011;51140;45.340;5.980;2023-08-17T12:06:49;7.20;;;2.40;;
64712;SDS011;51140;45.340;5.980;2023-08-17T12:09:14;15.50;;;2.72;;
64712;SDS011;51140;45.340;5.980;2023-08-17T12:11:40;9.63;;;2.50;;
64712;SDS011;51140;45.340;5.980;2023-08-17T12:14:09;13.73;;;2.80;;
64712;SDS011;51140;45.340;5.980;2023-08-17T12:16:44;9.52;;;2.63;;
64712;SDS011;51140;45.340;5.980;2023-08-17T12:19:13;11.27;;;2.42;;
64712;SDS011;51140;45.340;5.980;2023-08-17T12:21:40;10.65;;;2.95;;
64712;SDS011;51140;45.340;5.980;2023-08-17T12:24:06;11.52;;;2.47;;
64712;SDS011;51140;45.340;5.980;2023-08-17T12:26:34;9.32;;;2.30;;
64712;SDS011;51140;45.340;5.980;2023-08-17T12:29:00;9.70;;;2.50;;
64712;SDS011;51140;45.340;5.980;2023-08-17T12:31:29;12.73;;;2.88;;
64712;SDS011;51140;45.340;5.980;2023-08-17T12:33:54;10.25;;;2.60;;
64712;SDS011;51140;45.340;5.980;2023-08-17T12:36:20;9.82;;;2.40;;
64712;SDS011;51140;45.340;5.980;2023-08-17T12:38:46;11.20;;;2.70;;
64712;SDS011;51140;45.340;5.980;2023-08-17T12:41:13;8.55;;;2.50;;
64712;SDS011;51140;45.340;5.980;2023-08-17T12:43:38;10.23;;;2.38;;
64712;SDS011;51140;45.340;5.980;2023-08-17T12:46:04;9.52;;;2.30;;
64712;SDS011;51140;45.340;5.980;2023-08-17T12:48:29;8.30;;;2.38;;
64712;SDS011;51140;45.340;5.980;2023-08-17T12:50:55;9.63;;;2.75;;
64712;SDS011;51140;45.340;5.980;2023-08-17T12:53:21;13.73;;;2.78;;
64712;SDS011;51140;45.340;5.980;2023-08-17T12:55:47;9.40;;;2.35;;
64712;SDS011;51140;45.340;5.980;2023-08-17T12:58:12;12.13;;;2.70;;
64712;SDS011;51140;45.340;5.980;2023-08-17T13:00:38;10.45;;;2.20;;
64712;SDS011;51140;45.340;5.980;2023-08-17T13:03:03;11.57;;;2.65;;
64712;SDS011;51140;45.340;5.980;2023-08-17T13:05:29;12.00;;;2.88;;
64712;SDS011;51140;45.340;5.980;2023-08-17T13:07:54;9.90;;;2.20;;
64712;SDS011;51140;45.340;5.980;2023-08-17T13:10:20;19.13;;;2.75;;
64712;SDS011;51140;45.340;5.980;2023-08-17T13:12:45;11.73;;;2.25;;
64712;SDS011;51140;45.340;5.980;2023-08-17T13:15:12;13.77;;;2.60;;
64712;SDS011;51140;45.340;5.980;2023-08-17T13:17:38;10.07;;;2.45;;
64712;SDS011;51140;45.340;5.980;2023-08-17T13:20:03;11.98;;;2.55;;
64712;SDS011;51140;45.340;5.980;2023-08-17T13:22:31;17.17;;;2.50;;
64712;SDS011;51140;45.340;5.980;2023-08-17T13:24:56;11.27;;;2.15;;
64712;SDS011;51140;45.340;5.980;2023-08-17T13:27:22;10.70;;;2.33;;
64712;SDS011;51140;45.340;5.980;2023-08-17T13:29:47;9.60;;;2.40;;
64712;SDS011;51140;45.340;5.980;2023-08-17T13:32:12;15.50;;;2.58;;
64712;SDS011;51140;45.340;5.980;2023-08-17T13:34:38;12.70;;;2.30;;
64712;SDS011;51140;45.340;5.980;2023-08-17T13:37:03;12.57;;;2.75;;
64712;SDS011;51140;45.340;5.980;2023-08-17T13:39:29;10.30;;;2.28;;
64712;SDS011;51140;45.340;5.980;2023-08-17T13:41:54;11.18;;;2.80;;
64712;SDS011;51140;45.340;5.980;2023-08-17T13:44:19;9.32;;;2.63;;
64712;SDS011;51140;45.340;5.980;2023-08-17T13:46:45;13.07;;;2.42;;
64712;SDS011;51140;45.340;5.980;2023-08-17T13:49:10;11.57;;;2.20;;
64712;SDS011;51140;45.340;5.980;2023-08-17T13:51:35;11.27;;;2.63;;
64712;SDS011;51140;45.340;5.980;2023-08-17T13:54:01;11.20;;;2.30;;
64712;SDS011;51140;45.340;5.980;2023-08-17T13:56:26;10.77;;;2.30;;
64712;SDS011;51140;45.340;5.980;2023-08-17T13:58:52;9.75;;;2.20;;
64712;SDS011;51140;45.340;5.980;2023-08-17T14:01:17;12.32;;;2.30;;
64712;SDS011;51140;45.340;5.980;2023-08-17T14:03:43;8.98;;;2.05;;
64712;SDS011;51140;45.340;5.980;2023-08-17T14:06:09;17.63;;;2.72;;
64712;SDS011;51140;45.340;5.980;2023-08-17T14:08:34;8.07;;;2.22;;
64712;SDS011;51140;45.340;5.980;2023-08-17T14:10:59;11.70;;;2.17;;
64712;SDS011;51140;45.340;5.980;2023-08-17T14:13:25;9.63;;;2.40;;
64712;SDS011;51140;45.340;5.980;2023-08-17T14:15:51;9.82;;;2.38;;
64712;SDS011;51140;45.340;5.980;2023-08-17T14:18:16;10.27;;;2.03;;
64712;SDS011;51140;45.340;5.980;2023-08-17T14:20:41;10.02;;;2.30;;
64712;SDS011;51140;45.340;5.980;2023-08-17T14:23:07;8.10;;;2.17;;
64712;SDS011;51140;45.340;5.980;2023-08-17T14:25:32;10.95;;;2.20;;
64712;SDS011;51140;45.340;5.980;2023-08-17T14:27:58;10.80;;;2.60;;
64712;SDS011;51140;45.340;5.980;2023-08-17T14:30:24;9.93;;;2.15;;
64712;SDS011;51140;45.340;5.980;2023-08-17T14:32:50;11.07;;;2.33;;
64712;SDS011;51140;45.340;5.980;2023-08-17T14:35:15;9.05;;;2.03;;
64712;SDS011;51140;45.340;5.980;2023-08-17T14:37:41;11.40;;;2.38;;
64712;SDS011;51140;45.340;5.980;2023-08-17T14:40:06;6.80;;;2.20;;
64712;SDS011;51140;45.340;5.980;2023-08-17T14:42:32;10.65;;;2.42;;
64712;SDS011;51140;45.340;5.980;2023-08-17T14:44:58;12.18;;;2.47;;
64712;SDS011;51140;45.340;5.980;2023-08-17T14:47:23;13.55;;;2.28;;
64712;SDS011;51140;45.340;5.980;2023-08-17T14:49:48;9.65;;;2.80;;
64712;SDS011;51140;45.340;5.980;2023-08-17T14:52:14;16.50;;;2.75;;